Hope, Kentucky
Current Conditions -  °F | °C
As of 12:15 PM on Thursday 23 Oct 2014 (Local Time) from KIOB Reporting Station
Scattered Clouds Scattered Clouds  
Wind Chill: 54°   Ceiling: Unl
Heat Index: 54°   Visibility: 10mi
Dew Point: 41°   Wind: 0mph
Humidity: 62%   Direction: NA
Pressure: 30.25"   Gusts: NA
Location:  38.02°N, 83.77°W
Report Text: KIOB 231615Z AUTO 00000KT 10SM SCT028 12/05 A3025 RMK AO2
Loading
Personal Weather Stations






























Interactive Weather Map
Tropical Storm Tracking
New forecast layout! Learn more

10-Day Weather Forecast

Advertisements
Track Severe Weather on mobile